Time;durP1;ratioP1;P1;durP2;ratioP2;P2;SDS_P1;SDS_P2;PMS_P1;PMS_P2;Temp;Humidity;BMP_temperature;BMP_pressure;BME280_temperature;BME280_humidity;BME280_pressure;Samples;Min_cycle;Max_cycle;Signal;HPM_P1;HPM_P2
2021/06/13 00:01:24;;;;;;;;;7.00;6.00;;;;;20.42;53.56;98632.03;6259055;27;125917;-62
2021/06/13 00:04:28;;;;;;;;;8.00;8.00;;;;;20.41;53.52;98635.88;6259577;27;126039;-63
2021/06/13 00:07:30;;;;;;;;;7.00;6.00;;;;;20.25;53.55;98627.00;6253610;27;125135;-63
2021/06/13 00:10:33;;;;;;;;;8.00;8.00;;;;;20.43;53.52;98639.94;6258569;27;125942;-62
2021/06/13 00:13:36;;;;;;;;;8.20;7.20;;;;;20.51;53.49;98633.84;6257761;27;126314;-62
2021/06/13 00:16:39;;;;;;;;;7.20;7.20;;;;;20.49;53.38;98635.22;6258488;27;126599;-63
2021/06/13 00:19:44;;;;;;;;;7.00;7.00;;;;;20.54;53.40;98632.44;6251436;27;126562;-63
2021/06/13 00:22:47;;;;;;;;;8.60;8.00;;;;;20.55;53.53;98631.34;6258734;27;126109;-62
2021/06/13 00:25:50;;;;;;;;;9.00;8.00;;;;;20.60;53.40;98628.53;6256727;27;125670;-62
2021/06/13 00:28:53;;;;;;;;;9.00;7.00;;;;;20.54;53.78;98624.22;6259074;27;124965;-62
2021/06/13 00:31:57;;;;;;;;;9.50;9.00;;;;;20.57;53.59;98626.38;6258725;27;126143;-62
2021/06/13 00:35:03;;;;;;;;;9.00;9.00;;;;;20.57;53.83;98629.94;6257146;27;126804;-62
2021/06/13 00:38:07;;;;;;;;;9.00;8.00;;;;;20.56;53.74;98627.50;6259387;27;124745;-62
2021/06/13 00:41:10;;;;;;;;;9.20;8.60;;;;;20.62;54.05;98623.59;6240058;27;124676;-63
2021/06/13 00:44:14;;;;;;;;;11.00;11.00;;;;;20.60;54.04;98628.53;6254850;27;126138;-63
2021/06/13 00:47:17;;;;;;;;;12.00;10.00;;;;;20.55;54.10;98639.53;6257034;27;126320;-63
2021/06/13 00:50:27;;;;;;;;;10.75;10.00;;;;;20.54;54.53;98638.72;6254748;27;126182;-62
2021/06/13 00:53:31;;;;;;;;;11.25;11.00;;;;;20.58;54.21;98631.56;6256666;27;127436;-63
2021/06/13 00:56:40;;;;;;;;;14.40;13.00;;;;;20.38;54.25;98598.16;6257862;27;126124;-63
2021/06/13 00:59:42;;;;;;;;;13.00;13.00;;;;;20.57;53.95;98621.72;6261717;27;126269;-62
2021/06/13 01:02:46;;;;;;;;;12.60;12.00;;;;;20.53;54.06;98622.56;6262589;27;126195;-62
2021/06/13 01:05:51;;;;;;;;;14.00;13.75;;;;;20.52;54.19;98613.56;6261266;27;124775;-62
2021/06/13 01:09:02;;;;;;;;;13.00;12.60;;;;;20.59;54.25;98624.16;6261402;27;125830;-62
2021/06/13 01:12:15;;;;;;;;;13.00;11.00;;;;;20.66;53.73;98613.66;6262392;27;126243;-63
2021/06/13 01:15:22;;;;;;;;;14.00;14.00;;;;;20.66;53.78;98617.22;6261185;27;125901;-62
2021/06/13 01:18:32;;;;;;;;;16.50;15.00;;;;;20.68;53.92;98625.94;6260867;27;126264;-62
2021/06/13 01:21:54;;;;;;;;;14.00;13.00;;;;;20.72;53.83;98607.81;6262510;27;125058;-62
2021/06/13 01:25:05;;;;;;;;;12.00;11.80;;;;;20.64;54.13;98619.44;6262427;27;126017;-63
2021/06/13 01:28:37;;;;;;;;;14.00;13.00;;;;;20.58;54.00;98609.63;6262094;27;125914;-62
2021/06/13 01:31:46;;;;;;;;;14.20;13.00;;;;;20.61;54.31;98619.22;6262576;27;124754;-62
2021/06/13 01:34:55;;;;;;;;;15.00;12.60;;;;;20.61;53.90;98600.03;6261250;27;124499;-63
2021/06/13 01:38:02;;;;;;;;;14.50;13.00;;;;;20.43;54.21;98614.50;6261252;27;124828;-63
2021/06/13 01:41:09;;;;;;;;;12.40;12.00;;;;;20.55;54.20;98604.75;6258923;27;125999;-63
2021/06/13 01:44:14;;;;;;;;;12.00;12.00;;;;;20.66;53.73;98608.19;6259524;27;126143;-63
2021/06/13 01:47:18;;;;;;;;;13.00;12.00;;;;;20.74;54.09;98604.78;6261354;27;126500;-63
2021/06/13 01:50:23;;;;;;;;;10.20;10.20;;;;;20.83;54.05;98615.88;6260559;27;124669;-63
2021/06/13 01:53:29;;;;;;;;;15.00;14.00;;;;;20.70;53.86;98593.59;6260138;27;126096;-63
2021/06/13 01:56:37;;;;;;;;;12.60;12.00;;;;;20.78;53.66;98603.06;6260172;27;125927;-62
2021/06/13 01:59:43;;;;;;;;;15.00;14.00;;;;;20.64;54.02;98608.47;6260403;27;125829;-62
2021/06/13 02:02:51;;;;;;;;;14.40;14.00;;;;;20.66;54.20;98611.75;6260499;27;124926;-62
2021/06/13 02:06:02;;;;;;;;;15.00;14.00;;;;;20.52;54.36;98608.09;6261886;27;125896;-62
2021/06/13 02:09:06;;;;;;;;;16.00;15.00;;;;;20.39;54.35;98584.13;6262804;27;126230;-63
2021/06/13 02:12:10;;;;;;;;;13.25;12.25;;;;;20.46;54.50;98616.66;6260349;27;126070;-62
2021/06/13 02:15:28;;;;;;;;;13.60;12.00;;;;;20.45;54.54;98617.75;6261321;27;125199;-62
2021/06/13 02:18:38;;;;;;;;;13.00;12.00;;;;;20.33;54.81;98607.22;6261405;27;124462;-62
2021/06/13 02:21:44;;;;;;;;;15.40;11.40;;;;;20.34;54.44;98622.53;6265458;27;124735;-62
2021/06/13 02:24:50;;;;;;;;;13.00;13.00;;;;;20.21;54.70;98618.56;6255906;27;124208;-62
2021/06/13 02:27:59;;;;;;;;;13.25;11.25;;;;;20.25;54.66;98624.25;6255229;27;124376;-62
2021/06/13 02:31:11;;;;;;;;;12.00;11.40;;;;;20.13;54.59;98612.91;6249097;27;126152;-62
2021/06/13 02:34:19;;;;;;;;;11.00;11.00;;;;;20.22;54.51;98631.13;6258607;27;124958;-62
2021/06/13 02:37:26;;;;;;;;;10.20;8.60;;;;;20.22;54.71;98636.63;6259651;27;125761;-62
2021/06/13 02:40:29;;;;;;;;;11.00;10.80;;;;;20.14;54.51;98630.94;6261855;27;125958;-62
2021/06/13 02:43:37;;;;;;;;;12.00;11.00;;;;;20.12;54.31;98642.19;6262806;27;126437;-62
2021/06/13 02:46:42;;;;;;;;;12.50;12.00;;;;;20.20;54.22;98643.47;6260776;27;124992;-62
2021/06/13 02:49:45;;;;;;;;;9.00;8.00;;;;;20.22;53.84;98655.78;6261089;27;126269;-63
2021/06/13 02:52:58;;;;;;;;;12.25;10.00;;;;;20.16;53.65;98661.59;6259079;27;126464;-63
2021/06/13 02:56:08;;;;;;;;;10.00;10.00;;;;;20.13;52.87;98671.19;6257831;27;125264;-63
2021/06/13 02:59:23;;;;;;;;;10.00;9.00;;;;;20.06;52.79;98658.94;6241306;27;127791;-62
2021/06/13 03:02:28;;;;;;;;;8.00;7.40;;;;;20.23;52.14;98679.28;6260729;27;124514;-62
2021/06/13 03:05:35;;;;;;;;;7.00;6.00;;;;;20.15;52.23;98690.88;6260833;27;126503;-62
2021/06/13 03:08:40;;;;;;;;;7.00;7.00;;;;;20.15;51.81;98693.59;6258812;27;125952;-62
2021/06/13 03:11:45;;;;;;;;;6.40;6.00;;;;;20.14;51.82;98702.91;6249602;27;125008;-63
2021/06/13 03:14:49;;;;;;;;;6.00;6.00;;;;;20.02;50.97;98690.72;6262085;27;124664;-63
2021/06/13 03:17:55;;;;;;;;;6.00;6.00;;;;;20.20;50.76;98712.72;6259594;27;125962;-63
2021/06/13 03:21:01;;;;;;;;;6.00;6.00;;;;;20.22;50.36;98721.47;6259714;27;124779;-62
2021/06/13 03:24:07;;;;;;;;;4.00;4.00;;;;;20.16;50.32;98705.38;6246691;27;126031;-62
2021/06/13 03:27:11;;;;;;;;;5.00;5.00;;;;;20.31;49.86;98738.13;6256530;27;125433;-63
2021/06/13 03:30:16;;;;;;;;;5.00;5.00;;;;;20.28;49.26;98731.25;6256832;27;126349;-63
2021/06/13 03:33:22;;;;;;;;;6.00;5.00;;;;;20.36;48.56;98743.53;6259086;27;126171;-62
2021/06/13 03:36:26;;;;;;;;;4.20;3.00;;;;;20.36;48.43;98749.03;6259806;27;124088;-62
2021/06/13 03:39:30;;;;;;;;;4.00;4.00;;;;;20.32;48.04;98742.50;6260289;27;126108;-62
2021/06/13 03:42:35;;;;;;;;;5.00;4.00;;;;;20.32;48.54;98745.22;6250860;27;124954;-63
2021/06/13 03:45:38;;;;;;;;;5.00;5.00;;;;;20.25;48.01;98753.72;6241239;27;123768;-63
2021/06/13 03:48:43;;;;;;;;;4.00;4.00;;;;;20.26;48.37;98760.84;6260145;27;126521;-63
2021/06/13 03:51:47;;;;;;;;;2.80;2.80;;;;;20.38;48.42;98768.69;6261396;27;124353;-63
2021/06/13 03:54:50;;;;;;;;;4.00;4.00;;;;;20.41;47.91;98772.78;6258483;27;124684;-63
2021/06/13 03:57:54;;;;;;;;;4.00;4.00;;;;;20.38;46.99;98778.84;6258091;27;125750;-63
2021/06/13 04:00:59;;;;;;;;;3.40;3.40;;;;;20.37;47.12;98778.03;6258954;27;124889;-63
2021/06/13 04:04:06;;;;;;;;;3.00;3.00;;;;;20.34;47.45;98773.13;6251496;27;125845;-63
2021/06/13 04:07:11;;;;;;;;;4.60;4.00;;;;;20.40;47.85;98782.94;6235567;27;123456;-63
2021/06/13 04:10:16;;;;;;;;;7.00;6.00;;;;;20.37;47.92;98783.50;6257900;27;125679;-63
2021/06/13 04:13:20;;;;;;;;;5.00;4.00;;;;;20.38;48.30;98793.34;6257695;27;124773;-63
2021/06/13 04:16:25;;;;;;;;;4.80;4.80;;;;;20.42;47.93;98794.41;6256908;27;124860;-63
2021/06/13 04:19:32;;;;;;;;;5.60;5.00;;;;;20.28;47.97;98787.94;6258793;27;125247;-63
2021/06/13 04:22:39;;;;;;;;;5.50;5.50;;;;;20.25;48.38;98788.50;6259394;27;125902;-63
2021/06/13 04:25:43;;;;;;;;;5.00;5.00;;;;;20.26;48.64;98793.69;6259951;27;125014;-63
2021/06/13 04:28:49;;;;;;;;;7.00;7.00;;;;;20.25;48.43;98800.28;6259896;27;126634;-63
2021/06/13 04:31:52;;;;;;;;;6.60;6.00;;;;;20.33;48.72;98806.28;6259213;27;125216;-63
2021/06/13 04:34:57;;;;;;;;;7.00;7.00;;;;;20.15;49.00;98777.63;6260484;27;126028;-63
2021/06/13 04:38:00;;;;;;;;;5.40;5.00;;;;;20.28;49.27;98802.44;6260136;27;125915;-63
2021/06/13 04:41:06;;;;;;;;;5.60;5.60;;;;;20.29;49.53;98792.28;6260479;27;127263;-63
2021/06/13 04:44:10;;;;;;;;;6.00;6.00;;;;;20.40;49.07;98793.88;6244858;27;122901;-63
2021/06/13 04:47:13;;;;;;;;;6.00;6.00;;;;;20.46;49.36;98792.72;6260075;27;125157;-63
2021/06/13 04:50:24;;;;;;;;;6.25;6.00;;;;;20.43;48.68;98795.25;6260762;27;124693;-63
2021/06/13 04:53:51;;;;;;;;;6.00;6.00;;;;;20.53;49.09;98803.34;6258029;27;124666;-63
2021/06/13 04:57:17;;;;;;;;;8.00;7.00;;;;;20.64;48.81;98802.97;6256675;27;126067;-63
2021/06/13 05:00:20;;;;;;;;;7.50;6.50;;;;;20.75;48.06;98807.25;6254090;27;124846;-63
2021/06/13 05:03:24;;;;;;;;;5.20;5.00;;;;;20.81;48.05;98799.78;6256818;27;124997;-63
2021/06/13 05:06:28;;;;;;;;;7.00;6.00;;;;;20.89;48.27;98812.03;6257021;27;124978;-63
2021/06/13 05:09:31;;;;;;;;;5.25;5.00;;;;;20.94;47.37;98818.25;6255336;27;124999;-63
2021/06/13 05:12:45;;;;;;;;;5.75;5.00;;;;;21.05;47.32;98816.22;6256188;27;125733;-63
2021/06/13 05:15:48;;;;;;;;;6.00;6.00;;;;;21.07;47.01;98822.22;6257577;27;126240;-63
2021/06/13 05:18:51;;;;;;;;;7.00;6.60;;;;;21.04;46.58;98818.16;6258902;27;126398;-63
2021/06/13 05:21:56;;;;;;;;;6.00;6.00;;;;;21.08;46.66;98823.88;6259839;27;124497;-63
2021/06/13 05:24:59;;;;;;;;;7.40;7.00;;;;;20.95;47.22;98824.56;6245364;27;125508;-63
2021/06/13 05:28:03;;;;;;;;;6.00;5.60;;;;;;;;6257507;27;125815;-63
2021/06/13 05:31:06;;;;;;;;;6.20;6.20;;;;;20.89;47.91;98828.47;6258214;27;124624;-63
2021/06/13 05:34:10;;;;;;;;;9.00;8.00;;;;;20.90;48.32;98838.31;6256636;27;123899;-63
2021/06/13 05:37:14;;;;;;;;;9.60;8.40;;;;;20.91;47.75;98839.97;6258175;27;126130;-63
2021/06/13 05:40:19;;;;;;;;;8.00;8.00;;;;;20.97;48.26;98842.34;6258346;27;123222;-63
2021/06/13 05:43:23;;;;;;;;;7.75;7.00;;;;;21.24;48.26;98843.72;6261593;27;125502;-63
2021/06/13 05:46:26;;;;;;;;;8.00;7.00;;;;;21.57;48.11;98837.28;6262288;27;126144;-63
2021/06/13 05:49:29;;;;;;;;;6.00;6.00;;;;;21.80;46.87;98839.16;6260531;27;126811;-63
2021/06/13 05:52:34;;;;;;;;;6.75;6.00;;;;;22.03;45.66;98840.22;6261513;27;124594;-63
2021/06/13 05:55:38;;;;;;;;;5.00;5.00;;;;;22.22;45.18;98841.03;6260864;27;124079;-63
2021/06/13 05:58:41;;;;;;;;;7.00;6.00;;;;;22.37;44.02;98835.31;6261966;27;125767;-63
2021/06/13 06:01:45;;;;;;;;;5.40;5.40;;;;;22.45;43.19;98845.59;6261741;27;125045;-63
2021/06/13 06:04:49;;;;;;;;;5.00;5.00;;;;;22.46;43.18;98846.41;6263539;27;124948;-63
2021/06/13 06:07:54;;;;;;;;;7.00;6.00;;;;;22.51;42.69;98835.34;6245267;27;123061;-63
2021/06/13 06:10:57;;;;;;;;;6.00;6.00;;;;;22.83;42.54;98854.56;6261794;27;125609;-63
2021/06/13 06:14:00;;;;;;;;;6.00;5.00;;;;;22.99;41.63;98862.53;6262804;27;127092;-63
2021/06/13 06:17:05;;;;;;;;;5.00;5.00;;;;;22.98;40.93;98858.97;6261608;27;122716;-63
2021/06/13 06:20:09;;;;;;;;;5.00;5.00;;;;;22.87;41.32;98868.56;6262771;27;124059;-63
2021/06/13 06:23:14;;;;;;;;;5.00;5.00;;;;;22.59;39.39;98853.06;6260997;27;124671;-63
2021/06/13 06:26:17;;;;;;;;;6.00;5.00;;;;;22.55;41.15;98871.25;6258764;27;125276;-63
2021/06/13 06:29:20;;;;;;;;;5.00;5.00;;;;;22.57;41.37;98875.34;6244325;27;123684;-63
2021/06/13 06:32:24;;;;;;;;;4.00;4.00;;;;;22.44;41.33;98874.19;6260886;27;126705;-63
2021/06/13 06:35:27;;;;;;;;;6.00;5.00;;;;;22.37;42.06;98871.00;6260816;27;126241;-63
2021/06/13 06:38:32;;;;;;;;;6.00;6.00;;;;;22.19;41.58;98874.56;6246186;27;125775;-63
2021/06/13 06:41:36;;;;;;;;;5.00;5.00;;;;;22.16;40.54;98869.69;6243295;27;124995;-63
2021/06/13 06:44:39;;;;;;;;;4.00;4.00;;;;;22.23;39.73;98874.81;6262162;27;125949;-63
2021/06/13 06:47:43;;;;;;;;;4.40;4.40;;;;;22.32;39.15;98875.75;6255741;27;125062;-63
2021/06/13 06:50:46;;;;;;;;;4.00;3.00;;;;;22.48;38.64;98876.34;6260526;27;126583;-63
2021/06/13 06:53:51;;;;;;;;;6.00;5.00;;;;;22.67;39.15;98872.44;6241954;27;124252;-63
2021/06/13 06:56:55;;;;;;;;;5.50;5.00;;;;;22.97;40.46;98868.34;6254498;27;125842;-63
2021/06/13 06:59:58;;;;;;;;;3.00;3.00;;;;;23.31;38.75;98874.28;6260342;27;124955;-63
2021/06/13 07:03:01;;;;;;;;;3.00;3.00;;;;;23.42;36.01;98879.59;6261654;27;126227;-63
2021/06/13 07:06:06;;;;;;;;;4.00;4.00;;;;;23.44;36.12;98885.59;6260186;27;125695;-63
2021/06/13 07:09:10;;;;;;;;;5.50;5.00;;;;;23.12;35.54;98898.31;6251048;27;126010;-63
2021/06/13 07:12:14;;;;;;;;;3.60;3.00;;;;;23.17;35.52;98884.47;6253328;27;125956;-63
2021/06/13 07:15:18;;;;;;;;;4.20;4.00;;;;;22.96;35.35;98887.91;6236560;27;126114;-63
2021/06/13 07:18:22;;;;;;;;;5.00;4.00;;;;;22.80;36.52;98906.59;6238423;27;125708;-63
2021/06/13 07:21:25;;;;;;;;;6.00;5.00;;;;;22.49;38.25;98900.75;6257511;27;124483;-63
2021/06/13 07:24:30;;;;;;;;;5.00;5.00;;;;;22.49;38.92;98906.25;6259447;27;126926;-63
2021/06/13 07:27:34;;;;;;;;;5.00;4.00;;;;;22.42;39.92;98914.88;6257689;27;126583;-63
2021/06/13 07:30:37;;;;;;;;;6.00;5.40;;;;;22.29;40.25;98920.28;6260763;27;124996;-63
2021/06/13 07:33:40;;;;;;;;;4.00;4.00;;;;;22.16;40.44;98919.09;6238093;27;125965;-63
2021/06/13 07:36:44;;;;;;;;;5.00;4.60;;;;;22.29;40.59;98925.78;6251898;27;124304;-63
2021/06/13 07:39:48;;;;;;;;;4.00;3.80;;;;;22.54;40.11;98924.56;6258883;27;126368;-63
2021/06/13 07:42:52;;;;;;;;;4.00;4.00;;;;;22.41;39.16;98923.41;6258459;27;126173;-66
2021/06/13 07:45:55;;;;;;;;;7.00;5.00;;;;;22.63;39.74;98929.09;6248271;27;125720;-62
2021/06/13 07:48:59;;;;;;;;;6.00;5.40;;;;;22.82;37.99;98932.66;6236660;27;124888;-62
2021/06/13 07:52:02;;;;;;;;;5.00;5.00;;;;;23.08;37.89;98919.28;6255976;27;126254;-62
2021/06/13 07:55:11;;;;;;;;;4.00;4.00;;;;;23.54;37.59;98930.28;6258485;27;124420;-62
2021/06/13 07:58:14;;;;;;;;;6.00;5.20;;;;;23.69;36.72;98937.44;6255806;27;125962;-62
2021/06/13 08:01:17;;;;;;;;;5.80;5.80;;;;;23.72;36.85;98940.38;6256606;27;124026;-62
2021/06/13 08:04:21;;;;;;;;;7.60;6.00;;;;;23.90;36.76;98949.63;6257013;27;126282;-62
2021/06/13 08:07:24;;;;;;;;;6.00;5.40;;;;;24.24;35.76;98957.47;6257280;27;126805;-62
2021/06/13 08:10:30;;;;;;;;;5.00;4.40;;;;;24.54;35.77;98950.44;6252374;27;124783;-62
2021/06/13 08:13:33;;;;;;;;;5.20;5.00;;;;;24.56;34.60;98962.81;6258813;27;126122;-62
2021/06/13 08:16:37;;;;;;;;;3.20;3.20;;;;;24.37;34.01;98970.41;6259708;27;126951;-62
2021/06/13 08:19:40;;;;;;;;;4.00;3.50;;;;;24.28;34.28;98963.19;6259492;27;125761;-63
2021/06/13 08:23:03;;;;;;;;;7.00;6.00;;;;;24.27;34.02;98969.81;6258701;27;125255;-63
2021/06/13 08:26:07;;;;;;;;;5.00;4.00;;;;;24.31;34.30;98973.59;6259580;27;125752;-63
2021/06/13 08:29:11;;;;;;;;;7.00;6.00;;;;;24.31;33.81;98968.06;6258893;27;126146;-63
2021/06/13 08:32:14;;;;;;;;;6.00;5.00;;;;;24.31;34.89;98971.66;6258553;27;125257;-63
2021/06/13 08:35:17;;;;;;;;;6.40;6.40;;;;;24.18;35.13;98978.00;6259594;27;124858;-63
2021/06/13 08:38:24;;;;;;;;;4.00;4.00;;;;;24.02;35.17;98974.72;6259284;27;124984;-63
2021/06/13 08:41:29;;;;;;;;;5.00;5.00;;;;;23.86;35.28;98970.66;6257696;27;124974;-63
2021/06/13 08:44:32;;;;;;;;;4.80;4.80;;;;;23.62;35.43;98975.53;6259032;27;124641;-63
2021/06/13 08:47:35;;;;;;;;;5.00;5.00;;;;;23.79;35.98;98986.78;6258008;27;123903;-63
2021/06/13 08:50:39;;;;;;;;;6.00;5.00;;;;;23.92;35.11;98983.19;6259212;27;125862;-62
2021/06/13 08:53:44;;;;;;;;;4.00;4.00;;;;;23.97;33.82;98952.78;6259176;27;124799;-62
2021/06/13 08:56:49;;;;;;;;;6.40;6.00;;;;;24.03;34.21;98979.13;6257856;27;126470;-61
2021/06/13 08:59:53;;;;;;;;;5.00;5.00;;;;;24.15;33.69;98984.09;6257476;27;124879;-61
2021/06/13 09:02:57;;;;;;;;;4.00;3.00;;;;;24.10;34.22;98985.00;6259309;27;126275;-61
2021/06/13 09:06:01;;;;;;;;;4.00;4.00;;;;;24.00;33.71;98998.16;6258715;27;125498;-61
2021/06/13 09:09:18;;;;;;;;;4.25;4.25;;;;;23.82;33.48;99005.44;6258228;27;126072;-61
2021/06/13 09:12:24;;;;;;;;;6.00;4.00;;;;;23.48;33.79;98982.97;6259138;27;124950;-61
2021/06/13 09:15:37;;;;;;;;;4.00;4.00;;;;;23.32;34.07;98972.22;6258991;27;127921;-61
2021/06/13 09:18:43;;;;;;;;;4.00;4.00;;;;;23.36;34.04;99004.63;6261047;27;123596;-62
2021/06/13 09:21:46;;;;;;;;;6.00;5.00;;;;;23.35;33.98;99008.50;6261148;27;124381;-62
2021/06/13 09:25:04;;;;;;;;;5.00;5.00;;;;;23.25;33.99;99015.00;6263012;27;127178;-62
2021/06/13 09:28:12;;;;;;;;;4.00;3.00;;;;;23.18;34.20;99007.13;6262613;27;125032;-63
2021/06/13 09:31:17;;;;;;;;;4.20;4.20;;;;;23.16;34.34;99003.88;6263466;27;124528;-63
2021/06/13 09:34:20;;;;;;;;;4.20;4.00;;;;;23.20;34.30;99026.91;6261770;27;126071;-63
2021/06/13 09:37:23;;;;;;;;;4.00;3.00;;;;;23.39;33.91;99017.78;6263444;27;125882;-63
2021/06/13 09:40:27;;;;;;;;;4.00;4.00;;;;;23.38;33.63;99016.97;6262602;27;124522;-63
2021/06/13 09:43:34;;;;;;;;;4.00;3.20;;;;;23.31;32.78;99022.03;6262683;27;125418;-63
2021/06/13 09:46:40;;;;;;;;;6.00;5.00;;;;;23.30;32.65;99039.66;6261817;27;126432;-63
2021/06/13 09:49:44;;;;;;;;;4.00;3.60;;;;;23.35;32.98;99034.06;6261579;27;123900;-63
2021/06/13 09:52:48;;;;;;;;;4.20;4.20;;;;;23.45;33.42;99038.63;6262422;27;124753;-63
2021/06/13 09:56:12;;;;;;;;;4.00;4.00;;;;;23.44;33.47;99037.75;6262160;27;125245;-63
2021/06/13 09:59:18;;;;;;;;;4.20;4.20;;;;;23.45;33.49;99033.94;6261184;27;126134;-63
2021/06/13 10:02:29;;;;;;;;;3.00;3.00;;;;;23.42;33.33;99041.91;6260926;27;124616;-63
2021/06/13 10:05:33;;;;;;;;;5.25;4.00;;;;;23.27;33.31;99041.06;6261028;27;124783;-63
2021/06/13 10:08:37;;;;;;;;;5.00;5.00;;;;;23.41;33.62;99040.31;6261031;27;125019;-64
2021/06/13 10:11:41;;;;;;;;;3.00;2.00;;;;;23.38;33.13;99038.97;6261985;27;125969;-63
2021/06/13 10:14:48;;;;;;;;;3.00;3.00;;;;;23.48;34.17;99036.06;6260139;27;126603;-63
2021/06/13 10:17:51;;;;;;;;;4.60;4.00;;;;;23.66;33.51;99056.38;6259956;27;127056;-63
2021/06/13 10:21:07;;;;;;;;;4.80;4.00;;;;;23.60;33.14;99057.63;6260456;27;126188;-63
2021/06/13 10:24:13;;;;;;;;;4.00;4.00;;;;;23.70;33.56;99069.22;6244432;27;125946;-63
2021/06/13 10:27:18;;;;;;;;;4.50;4.50;;;;;23.61;32.83;99059.22;6249156;27;124660;-63
2021/06/13 10:30:23;;;;;;;;;3.60;3.60;;;;;23.72;32.62;99074.44;6260954;27;125758;-63
2021/06/13 10:33:27;;;;;;;;;4.00;3.00;;;;;23.64;32.68;99084.22;6260505;27;124744;-63
2021/06/13 10:36:34;;;;;;;;;5.00;4.40;;;;;23.70;32.52;99082.22;6258289;27;126020;-63
2021/06/13 10:39:39;;;;;;;;;5.00;4.00;;;;;23.61;31.41;99084.81;6260928;27;124380;-63
2021/06/13 10:42:43;;;;;;;;;4.40;3.40;;;;;23.53;31.74;99079.19;6241322;27;125692;-63
2021/06/13 10:45:47;;;;;;;;;3.00;3.00;;;;;23.55;31.49;99090.72;6260941;27;125904;-63
2021/06/13 10:48:53;;;;;;;;;4.00;3.00;;;;;23.64;31.88;99077.91;6261188;27;126644;-63
2021/06/13 10:52:08;;;;;;;;;4.40;4.40;;;;;23.40;31.90;99080.75;6261497;27;125771;-63
2021/06/13 10:55:11;;;;;;;;;3.00;3.00;;;;;23.45;32.47;99064.19;6260323;27;123966;-64
2021/06/13 10:58:45;;;;;;;;;5.00;5.00;;;;;23.59;32.98;99069.72;6241964;27;125493;-64
2021/06/13 11:02:08;;;;;;;;;3.80;3.80;;;;;23.78;31.97;99067.72;6261212;27;124590;-63
2021/06/13 11:05:13;;;;;;;;;3.00;3.00;;;;;24.24;31.90;99064.13;6260505;27;124271;-63
2021/06/13 11:08:17;;;;;;;;;5.00;5.00;;;;;24.48;31.34;99059.19;6247399;27;122766;-63
2021/06/13 11:11:34;;;;;;;;;3.60;3.20;;;;;24.83;29.82;99057.56;6256636;27;125880;-63
2021/06/13 11:14:52;;;;;;;;;5.00;5.00;;;;;25.26;30.26;99085.56;6260639;27;124883;-63
2021/06/13 11:17:58;;;;;;;;;4.00;4.00;;;;;25.24;29.73;99061.03;6260884;27;124939;-63
2021/06/13 11:21:14;;;;;;;;;2.00;2.00;;;;;25.48;29.86;99074.50;6259105;27;124895;-63
2021/06/13 11:24:45;;;;;;;;;4.00;3.00;;;;;25.92;29.18;99094.94;6249527;27;125741;-63
2021/06/13 11:28:14;;;;;;;;;3.80;3.80;;;;;25.99;29.21;99087.84;6260206;27;126423;-64
2021/06/13 11:31:19;;;;;;;;;4.40;4.00;;;;;26.15;28.72;99069.69;6259805;27;125857;-63
2021/06/13 11:34:24;;;;;;;;;4.60;4.60;;;;;26.18;28.44;99074.59;6260952;27;126452;-63
2021/06/13 11:37:27;;;;;;;;;6.00;5.00;;;;;25.91;28.73;99083.06;6261016;27;126377;-63
2021/06/13 11:40:32;;;;;;;;;4.00;4.00;;;;;25.62;29.24;99082.75;6260103;27;124976;-64
2021/06/13 11:43:43;;;;;;;;;5.00;5.00;;;;;25.53;29.29;99084.59;6247275;27;124300;-64
2021/06/13 11:46:49;;;;;;;;;4.00;4.00;;;;;25.71;29.54;99080.84;6242544;27;125837;-64
2021/06/13 11:49:54;;;;;;;;;4.00;4.00;;;;;25.76;29.21;99073.25;6260978;27;125356;-64
2021/06/13 11:53:06;;;;;;;;;5.50;5.00;;;;;25.79;29.44;99075.38;6260625;27;125252;-64
2021/06/13 11:56:12;;;;;;;;;4.00;3.00;;;;;25.74;29.55;99085.75;6259429;27;126833;-62
2021/06/13 11:59:20;;;;;;;;;6.00;5.40;;;;;25.85;29.82;99081.59;6259955;27;125287;-63
2021/06/13 12:02:24;;;;;;;;;5.00;3.40;;;;;25.78;29.57;99084.78;6258762;27;125869;-63
2021/06/13 12:05:30;;;;;;;;;5.00;4.00;;;;;25.78;28.60;99075.69;6260112;27;125818;-63
2021/06/13 12:08:41;;;;;;;;;4.00;4.00;;;;;25.66;29.08;99078.22;6259150;27;124882;-64
2021/06/13 12:11:49;;;;;;;;;4.00;4.00;;;;;25.74;28.93;99070.00;6259804;27;125817;-63
2021/06/13 12:14:59;;;;;;;;;5.00;5.00;;;;;25.92;29.48;99081.94;6259534;27;124823;-63
2021/06/13 12:18:03;;;;;;;;;6.50;6.00;;;;;25.90;30.01;99081.47;6257744;27;125982;-63
2021/06/13 12:21:08;;;;;;;;;4.00;3.60;;;;;25.85;29.37;99087.91;6259488;27;125861;-63
2021/06/13 12:24:33;;;;;;;;;5.00;5.00;;;;;26.00;30.19;99092.19;6259583;27;123810;-63
2021/06/13 12:27:37;;;;;;;;;7.00;6.00;;;;;25.94;29.14;99078.88;6256600;27;125044;-63
2021/06/13 12:30:43;;;;;;;;;7.00;6.00;;;;;26.34;29.43;99099.84;6243266;27;126053;-63
2021/06/13 12:33:47;;;;;;;;;6.00;5.00;;;;;26.36;28.80;99089.28;6248630;27;126017;-63
2021/06/13 12:36:55;;;;;;;;;3.50;3.00;;;;;26.41;28.85;99099.38;6260435;27;123741;-63
2021/06/13 12:40:01;;;;;;;;;4.00;3.25;;;;;26.01;28.67;99109.59;6252318;27;125848;-62
2021/06/13 12:43:05;;;;;;;;;4.40;4.00;;;;;25.95;29.35;99113.66;6251934;27;125603;-62
2021/06/13 12:46:11;;;;;;;;;5.60;5.60;;;;;25.52;29.40;99099.53;6260139;27;126093;-64
2021/06/13 12:49:14;;;;;;;;;5.00;5.00;;;;;25.40;28.97;99113.91;6251173;27;124547;-63
2021/06/13 12:52:19;;;;;;;;;4.00;4.00;;;;;25.65;29.25;99116.09;6253547;27;125736;-64
2021/06/13 12:55:23;;;;;;;;;6.00;6.00;;;;;25.40;29.36;99092.66;6252081;27;126141;-64
2021/06/13 12:58:30;;;;;;;;;5.50;5.50;;;;;25.87;29.55;99110.50;6267550;27;125876;-63
2021/06/13 13:01:33;;;;;;;;;4.00;4.00;;;;;25.79;29.13;99110.47;6263429;27;125090;-64
2021/06/13 13:04:44;;;;;;;;;7.00;7.00;;;;;25.68;29.37;99098.88;6276530;27;126052;-64
2021/06/13 13:07:50;;;;;;;;;4.60;4.60;;;;;25.65;29.84;99094.00;6259555;27;125951;-63
2021/06/13 13:10:56;;;;;;;;;5.00;5.00;;;;;25.82;29.96;99107.88;6235222;27;125886;-64
2021/06/13 13:14:02;;;;;;;;;6.00;6.00;;;;;25.46;29.95;99082.31;6269227;27;124611;-63
2021/06/13 13:17:05;;;;;;;;;6.50;6.00;;;;;25.57;29.99;99122.34;6259446;27;127838;-62
2021/06/13 13:20:26;;;;;;;;;7.20;6.80;;;;;25.38;29.88;99116.16;6266628;27;126439;-62
2021/06/13 13:23:39;;;;;;;;;6.80;6.00;;;;;25.39;29.86;99118.63;6249967;27;125982;-62
2021/06/13 13:27:01;;;;;;;;;26.00;25.60;;;;;25.38;30.10;99108.69;6257391;27;126427;-62
2021/06/13 13:30:06;;;;;;;;;5.00;5.00;;;;;24.99;30.72;99111.28;6253644;27;125954;-64
2021/06/13 13:33:09;;;;;;;;;7.40;5.40;;;;;25.08;30.57;99114.94;6249488;27;124559;-64
2021/06/13 13:36:14;;;;;;;;;6.00;6.00;;;;;25.24;30.51;99115.41;6257863;27;127183;-64
2021/06/13 13:39:22;;;;;;;;;6.00;5.60;;;;;25.27;29.89;99106.50;6244698;27;123972;-64
2021/06/13 13:42:26;;;;;;;;;6.00;6.00;;;;;25.34;29.83;99112.41;6242167;27;125973;-64
2021/06/13 13:45:30;;;;;;;;;5.00;5.00;;;;;25.50;30.21;99113.66;6241917;27;126272;-63
2021/06/13 13:48:38;;;;;;;;;4.25;4.00;;;;;25.57;29.89;99105.78;6239391;27;124201;-63
2021/06/13 13:51:46;;;;;;;;;4.60;4.00;;;;;25.49;30.01;99105.69;6264602;27;126371;-64
2021/06/13 13:55:01;;;;;;;;;5.00;5.00;;;;;25.19;30.50;99108.06;6276562;27;125094;-64
2021/06/13 13:58:04;;;;;;;;;4.00;3.40;;;;;24.98;30.79;99112.41;6251293;27;125997;-64
2021/06/13 14:01:07;;;;;;;;;4.25;4.25;;;;;24.90;31.09;99122.25;6262081;27;128294;-64
2021/06/13 14:04:11;;;;;;;;;5.00;4.00;;;;;24.84;30.19;99128.16;6272150;27;123453;-63
2021/06/13 14:07:15;;;;;;;;;4.60;4.00;;;;;24.74;29.57;99131.13;6273141;27;126045;-63
2021/06/13 14:10:20;;;;;;;;;4.00;4.00;;;;;24.69;29.05;99128.47;6265121;27;125070;-64
2021/06/13 14:13:23;;;;;;;;;3.60;3.40;;;;;24.68;29.24;99115.84;6251218;27;125905;-63
2021/06/13 14:16:27;;;;;;;;;4.00;4.00;;;;;24.71;29.30;99115.22;6271199;27;124998;-63
2021/06/13 14:19:30;;;;;;;;;5.00;4.60;;;;;24.68;29.79;99116.63;6268421;27;126815;-63
2021/06/13 14:22:34;;;;;;;;;6.00;5.00;;;;;24.79;29.99;99112.53;6264828;27;125074;-64
2021/06/13 14:25:39;;;;;;;;;3.00;2.00;;;;;24.72;30.16;99114.91;6273071;27;124761;-64